Time;durP1;ratioP1;P1;durP2;ratioP2;P2;SDS_P1;SDS_P2;PMS_P1;PMS_P2;Temp;Humidity;BMP_temperature;BMP_pressure;BME280_temperature;BME280_humidity;BME280_pressure;Samples;Min_cycle;Max_cycle;Signal;HPM_P1;HPM_P2
2022/10/16 00:01:30;;;;;;;21.08;14.40;;;;;;;;;;5096197;28;20034;-70
2022/10/16 00:03:56;;;;;;;21.65;14.20;;;;;;;;;;5096606;28;20512;-70
2022/10/16 00:06:22;;;;;;;19.98;13.68;;;;;;;;;;5096054;28;20038;-70
2022/10/16 00:08:48;;;;;;;20.15;12.75;;;;;;;;;;5095398;28;20019;-68
2022/10/16 00:11:36;;;;;;;19.40;13.32;;;;;;;;;;5113931;28;20475;-68
2022/10/16 00:14:02;;;;;;;19.23;12.77;;;;;;;;;;5113774;28;20039;-69
2022/10/16 00:16:28;;;;;;;20.88;12.90;;;;;;;;;;5096033;28;20027;-68
2022/10/16 00:18:54;;;;;;;23.45;14.07;;;;;;;;;;5112921;28;20027;-69
2022/10/16 00:21:23;;;;;;;22.40;14.15;;;;;;;;;;5113623;28;20026;-68
2022/10/16 00:23:52;;;;;;;24.45;14.25;;;;;;;;;;5114063;28;20364;-68
2022/10/16 00:26:18;;;;;;;20.92;13.63;;;;;;;;;;5096333;28;20051;-69
2022/10/16 00:28:48;;;;;;;18.63;13.48;;;;;;;;;;5114114;28;20055;-69
2022/10/16 00:31:13;;;;;;;20.35;13.90;;;;;;;;;;5114294;28;20039;-69
2022/10/16 00:33:39;;;;;;;20.80;14.35;;;;;;;;;;5113545;28;20424;-69
2022/10/16 00:36:06;;;;;;;18.30;13.52;;;;;;;;;;5098586;28;20054;-69
2022/10/16 00:38:31;;;;;;;20.58;14.20;;;;;;;;;;5093687;28;20456;-69
2022/10/16 00:40:57;;;;;;;20.65;14.38;;;;;;;;;;5092776;28;20025;-69
2022/10/16 00:43:36;;;;;;;19.65;13.68;;;;;;;;;;5093606;28;20367;-69
2022/10/16 00:46:02;;;;;;;20.77;13.85;;;;;;;;;;5075256;28;20062;-69
2022/10/16 00:48:28;;;;;;;18.58;13.43;;;;;;;;;;5092705;28;20024;-70
2022/10/16 00:50:53;;;;;;;24.35;13.48;;;;;;;;;;5093405;28;20032;-70
2022/10/16 00:53:19;;;;;;;21.13;14.00;;;;;;;;;;5093853;28;20047;-70
2022/10/16 00:55:45;;;;;;;21.65;13.40;;;;;;;;;;5093223;28;20028;-70
2022/10/16 00:58:11;;;;;;;18.88;13.25;;;;;;;;;;5093324;28;20020;-70
2022/10/16 01:00:37;;;;;;;19.58;13.50;;;;;;;;;;5093531;28;20042;-70
2022/10/16 01:03:03;;;;;;;20.00;13.88;;;;;;;;;;5093754;28;20027;-67
2022/10/16 01:05:42;;;;;;;19.65;13.15;;;;;;;;;;5075709;28;20039;-67
2022/10/16 01:08:28;;;;;;;19.25;12.65;;;;;;;;;;5096996;28;20490;-67
2022/10/16 01:11:03;;;;;;;17.05;12.63;;;;;;;;;;5097240;28;20130;-67
2022/10/16 01:13:34;;;;;;;16.30;12.38;;;;;;;;;;5097249;28;20044;-67
2022/10/16 01:16:11;;;;;;;17.60;12.65;;;;;;;;;;5078980;28;20655;-67
2022/10/16 01:18:54;;;;;;;20.83;12.55;;;;;;;;;;5096961;28;20024;-67
2022/10/16 01:21:26;;;;;;;19.90;12.10;;;;;;;;;;5078825;28;20024;-67
2022/10/16 01:24:12;;;;;;;16.05;12.35;;;;;;;;;;5097141;28;20035;-67
2022/10/16 01:26:41;;;;;;;17.77;12.77;;;;;;;;;;5079365;28;20039;-67
2022/10/16 01:29:06;;;;;;;15.48;11.40;;;;;;;;;;5078286;28;20027;-65
2022/10/16 01:31:33;;;;;;;16.58;12.02;;;;;;;;;;5096941;28;20028;-65
2022/10/16 01:34:02;;;;;;;18.05;11.98;;;;;;;;;;5096643;28;20016;-65
2022/10/16 01:36:30;;;;;;;17.88;12.30;;;;;;;;;;5115542;28;20137;-65
2022/10/16 01:39:00;;;;;;;15.63;11.65;;;;;;;;;;5117115;28;20032;-67
2022/10/16 01:41:34;;;;;;;17.80;11.80;;;;;;;;;;5098878;28;20027;-67
2022/10/16 01:44:18;;;;;;;17.42;12.02;;;;;;;;;;5117341;28;20031;-67
2022/10/16 01:46:45;;;;;;;15.73;11.38;;;;;;;;;;5116937;28;20513;-67
2022/10/16 01:49:11;;;;;;;15.98;11.88;;;;;;;;;;5116528;28;20028;-66
2022/10/16 01:51:37;;;;;;;16.17;10.75;;;;;;;;;;5116362;28;20027;-67
2022/10/16 01:54:04;;;;;;;17.85;11.32;;;;;;;;;;5116974;28;20107;-67
2022/10/16 01:56:29;;;;;;;16.60;11.50;;;;;;;;;;5116756;28;20360;-66
2022/10/16 01:59:06;;;;;;;17.50;10.85;;;;;;;;;;5116717;28;20019;-66
2022/10/16 02:01:33;;;;;;;14.60;10.30;;;;;;;;;;5116964;28;20043;-67
2022/10/16 02:04:02;;;;;;;14.50;9.88;;;;;;;;;;5116836;28;20444;-67
2022/10/16 02:06:29;;;;;;;14.95;10.00;;;;;;;;;;5116410;28;20055;-67
2022/10/16 02:08:54;;;;;;;14.48;9.95;;;;;;;;;;5116844;28;20020;-68
2022/10/16 02:11:20;;;;;;;15.35;10.32;;;;;;;;;;5116378;28;20092;-67
2022/10/16 02:13:48;;;;;;;13.15;10.02;;;;;;;;;;5109963;28;20101;-67
2022/10/16 02:16:14;;;;;;;13.88;10.07;;;;;;;;;;5096079;28;20035;-68
2022/10/16 02:18:40;;;;;;;11.18;9.27;;;;;;;;;;5094759;28;20028;-68
2022/10/16 02:21:26;;;;;;;16.13;10.43;;;;;;;;;;5077908;28;20035;-68
2022/10/16 02:24:03;;;;;;;14.50;9.70;;;;;;;;;;5094978;28;20048;-67
2022/10/16 02:26:50;;;;;;;16.65;10.02;;;;;;;;;;5096169;28;20024;-68
2022/10/16 02:29:18;;;;;;;14.90;9.57;;;;;;;;;;5095765;28;20101;-68
2022/10/16 02:31:45;;;;;;;16.90;10.23;;;;;;;;;;5095836;28;20099;-67
2022/10/16 02:34:12;;;;;;;11.48;9.30;;;;;;;;;;5096139;28;20024;-67
2022/10/16 02:36:38;;;;;;;13.27;10.02;;;;;;;;;;5075883;28;20041;-67
2022/10/16 02:39:04;;;;;;;14.07;9.82;;;;;;;;;;5075061;28;20056;-67
2022/10/16 02:41:30;;;;;;;14.30;9.20;;;;;;;;;;5075140;28;20060;-67
2022/10/16 02:43:55;;;;;;;11.75;9.18;;;;;;;;;;5075366;28;20060;-67
2022/10/16 02:46:21;;;;;;;12.27;9.20;;;;;;;;;;5075226;28;20028;-67
2022/10/16 02:48:47;;;;;;;13.57;9.55;;;;;;;;;;5057069;28;20039;-68
2022/10/16 02:51:12;;;;;;;14.43;8.63;;;;;;;;;;5074999;28;20043;-67
2022/10/16 02:53:37;;;;;;;13.52;8.98;;;;;;;;;;5075330;28;20051;-67
2022/10/16 02:56:03;;;;;;;13.75;8.60;;;;;;;;;;5074858;28;20383;-67
2022/10/16 02:58:28;;;;;;;11.70;8.73;;;;;;;;;;5075131;28;20111;-65
2022/10/16 03:00:54;;;;;;;15.77;8.70;;;;;;;;;;5075422;28;20047;-66
2022/10/16 03:03:20;;;;;;;11.93;8.88;;;;;;;;;;5074711;28;20032;-67
2022/10/16 03:05:45;;;;;;;11.60;8.77;;;;;;;;;;5075057;28;20114;-67
2022/10/16 03:08:11;;;;;;;11.45;8.80;;;;;;;;;;5074833;28;20048;-67
2022/10/16 03:10:37;;;;;;;11.20;8.38;;;;;;;;;;5056790;28;20111;-68
2022/10/16 03:13:02;;;;;;;12.52;8.05;;;;;;;;;;5075039;28;20041;-67
2022/10/16 03:15:28;;;;;;;12.57;8.60;;;;;;;;;;5074910;28;20020;-68
2022/10/16 03:17:54;;;;;;;11.18;8.38;;;;;;;;;;5074729;28;20025;-68
2022/10/16 03:20:19;;;;;;;11.68;8.32;;;;;;;;;;5074633;28;20509;-66
2022/10/16 03:22:45;;;;;;;15.43;8.63;;;;;;;;;;5074397;28;20043;-66
2022/10/16 03:25:10;;;;;;;10.45;8.20;;;;;;;;;;5074205;28;20020;-67
2022/10/16 03:27:36;;;;;;;12.43;8.75;;;;;;;;;;5074664;28;20024;-67
2022/10/16 03:30:01;;;;;;;13.65;8.85;;;;;;;;;;5074100;28;20021;-68
2022/10/16 03:32:28;;;;;;;13.30;8.15;;;;;;;;;;5074010;28;20031;-68
2022/10/16 03:34:54;;;;;;;8.70;7.88;;;;;;;;;;5061868;28;20047;-68
2022/10/16 03:37:19;;;;;;;13.48;8.13;;;;;;;;;;5094919;28;20434;-68
2022/10/16 03:39:45;;;;;;;13.55;7.78;;;;;;;;;;5076144;28;20023;-65
2022/10/16 03:42:10;;;;;;;14.55;7.88;;;;;;;;;;5094419;28;20032;-67
2022/10/16 03:44:36;;;;;;;9.10;7.72;;;;;;;;;;5094392;28;20054;-67
2022/10/16 03:47:01;;;;;;;11.18;7.85;;;;;;;;;;5094154;28;20487;-70
2022/10/16 03:49:26;;;;;;;11.85;8.73;;;;;;;;;;5076179;28;20487;-68
2022/10/16 03:51:52;;;;;;;10.18;8.38;;;;;;;;;;5075829;28;20028;-67
2022/10/16 03:54:17;;;;;;;10.80;8.23;;;;;;;;;;5094407;28;20437;-64
2022/10/16 03:56:43;;;;;;;13.27;7.80;;;;;;;;;;5076549;28;20020;-64
2022/10/16 03:59:08;;;;;;;13.77;7.95;;;;;;;;;;5094080;28;20016;-68
2022/10/16 04:01:33;;;;;;;11.98;8.00;;;;;;;;;;5094239;28;20035;-68
2022/10/16 04:03:59;;;;;;;10.15;7.47;;;;;;;;;;5094467;28;20099;-68
2022/10/16 04:06:24;;;;;;;12.18;8.43;;;;;;;;;;5093970;28;20070;-68
2022/10/16 04:08:50;;;;;;;12.88;7.63;;;;;;;;;;5094255;28;20491;-68
2022/10/16 04:11:15;;;;;;;10.85;7.95;;;;;;;;;;5094209;28;20023;-65
2022/10/16 04:13:41;;;;;;;13.00;8.60;;;;;;;;;;5094109;28;20452;-65
2022/10/16 04:16:06;;;;;;;10.80;7.35;;;;;;;;;;5075959;28;20028;-64
2022/10/16 04:18:32;;;;;;;9.73;7.45;;;;;;;;;;5094081;28;20439;-64
2022/10/16 04:21:01;;;;;;;8.77;7.25;;;;;;;;;;5094478;28;20039;-66
2022/10/16 04:23:27;;;;;;;9.07;7.28;;;;;;;;;;5093833;28;20020;-66
2022/10/16 04:25:52;;;;;;;11.07;7.85;;;;;;;;;;5093783;28;20020;-65
2022/10/16 04:28:17;;;;;;;9.80;7.88;;;;;;;;;;5093733;28;20348;-65
2022/10/16 04:30:43;;;;;;;8.73;7.22;;;;;;;;;;5075534;28;20122;-65
2022/10/16 04:33:09;;;;;;;11.07;7.70;;;;;;;;;;5093638;28;20102;-65
2022/10/16 04:35:35;;;;;;;10.10;7.82;;;;;;;;;;5082897;28;20040;-65
2022/10/16 04:38:00;;;;;;;9.52;7.97;;;;;;;;;;5073589;28;20028;-65
2022/10/16 04:40:26;;;;;;;9.55;7.60;;;;;;;;;;5073321;28;20089;-65
2022/10/16 04:42:51;;;;;;;10.63;7.82;;;;;;;;;;5077726;28;20115;-65
2022/10/16 04:45:16;;;;;;;9.32;7.30;;;;;;;;;;5077556;28;20107;-66
2022/10/16 04:47:42;;;;;;;8.50;7.43;;;;;;;;;;5077888;28;20028;-64
2022/10/16 04:50:07;;;;;;;13.57;7.90;;;;;;;;;;5077430;28;20471;-66
2022/10/16 04:52:33;;;;;;;13.38;8.90;;;;;;;;;;5058569;28;20098;-68
2022/10/16 04:55:01;;;;;;;12.65;8.07;;;;;;;;;;5076876;28;20103;-64
2022/10/16 04:57:27;;;;;;;11.05;8.50;;;;;;;;;;5077155;28;20028;-64
2022/10/16 04:59:52;;;;;;;9.73;7.90;;;;;;;;;;5059369;28;20097;-64
2022/10/16 05:02:18;;;;;;;10.48;8.25;;;;;;;;;;5077255;28;20376;-65
2022/10/16 05:04:43;;;;;;;9.63;8.27;;;;;;;;;;5076887;28;20531;-65
2022/10/16 05:07:09;;;;;;;13.20;8.77;;;;;;;;;;5077005;28;20064;-67
2022/10/16 05:09:34;;;;;;;10.38;8.25;;;;;;;;;;5075381;28;20016;-67
2022/10/16 05:11:59;;;;;;;12.65;8.82;;;;;;;;;;5076024;28;20099;-67
2022/10/16 05:14:25;;;;;;;11.25;8.27;;;;;;;;;;5076293;28;20505;-67
2022/10/16 05:16:50;;;;;;;11.98;10.30;;;;;;;;;;5076415;28;20056;-67
2022/10/16 05:19:16;;;;;;;12.48;9.07;;;;;;;;;;5076262;28;20082;-67
2022/10/16 05:21:41;;;;;;;11.43;8.80;;;;;;;;;;5076052;28;20029;-67
2022/10/16 05:24:06;;;;;;;11.00;9.68;;;;;;;;;;5075859;28;20552;-67
2022/10/16 05:26:32;;;;;;;15.93;12.07;;;;;;;;;;5057534;28;20115;-67
2022/10/16 05:28:57;;;;;;;16.33;12.15;;;;;;;;;;5075272;28;20108;-67
2022/10/16 05:31:22;;;;;;;15.07;9.65;;;;;;;;;;5075279;28;20032;-67
2022/10/16 05:33:48;;;;;;;15.20;10.70;;;;;;;;;;5040340;28;20017;-67
2022/10/16 05:36:14;;;;;;;16.10;12.10;;;;;;;;;;5073028;28;20507;-67
2022/10/16 05:38:39;;;;;;;23.63;14.00;;;;;;;;;;5095165;28;20028;-67
2022/10/16 05:41:05;;;;;;;11.82;10.55;;;;;;;;;;5095272;28;20036;-67
2022/10/16 05:43:31;;;;;;;22.00;15.00;;;;;;;;;;5095182;28;20058;-67
2022/10/16 05:45:57;;;;;;;21.05;13.43;;;;;;;;;;5095083;28;20498;-67
2022/10/16 05:48:23;;;;;;;22.30;15.68;;;;;;;;;;5093352;28;20028;-67
2022/10/16 05:50:48;;;;;;;37.65;23.15;;;;;;;;;;5093182;28;20058;-67
2022/10/16 05:53:13;;;;;;;31.50;21.90;;;;;;;;;;5092780;28;20024;-67
2022/10/16 05:55:39;;;;;;;28.88;18.42;;;;;;;;;;5093060;28;20464;-67
2022/10/16 05:58:04;;;;;;;20.48;16.33;;;;;;;;;;5074831;28;20027;-67
2022/10/16 06:00:29;;;;;;;22.45;16.70;;;;;;;;;;5092933;28;20032;-67
2022/10/16 06:02:54;;;;;;;18.90;15.13;;;;;;;;;;5093424;28;20082;-67
2022/10/16 06:05:20;;;;;;;18.65;15.05;;;;;;;;;;5075699;28;20063;-67
2022/10/16 06:07:45;;;;;;;17.70;14.07;;;;;;;;;;5092974;28;20054;-67
2022/10/16 06:10:11;;;;;;;20.23;15.15;;;;;;;;;;5092854;28;20443;-67
2022/10/16 06:12:36;;;;;;;21.85;14.73;;;;;;;;;;5092912;28;20095;-67
2022/10/16 06:15:02;;;;;;;21.30;15.95;;;;;;;;;;5092595;28;20032;-67
2022/10/16 06:17:28;;;;;;;22.92;16.65;;;;;;;;;;5074723;28;20024;-67
2022/10/16 06:19:53;;;;;;;36.15;24.08;;;;;;;;;;5093332;28;20123;-67
2022/10/16 06:22:18;;;;;;;41.95;26.30;;;;;;;;;;5094592;28;20095;-67
2022/10/16 06:24:44;;;;;;;45.67;28.67;;;;;;;;;;5094281;28;20059;-67
2022/10/16 06:27:09;;;;;;;36.80;22.73;;;;;;;;;;5094201;28;20032;-67
2022/10/16 06:29:35;;;;;;;26.48;17.05;;;;;;;;;;5094281;28;20040;-67
2022/10/16 06:32:00;;;;;;;24.52;16.55;;;;;;;;;;5094342;28;20020;-70
2022/10/16 06:34:25;;;;;;;29.40;19.70;;;;;;;;;;5074552;28;20020;-70
2022/10/16 06:36:51;;;;;;;39.55;23.98;;;;;;;;;;5074030;28;20396;-70
2022/10/16 06:39:16;;;;;;;53.75;31.48;;;;;;;;;;5073912;28;20138;-70
2022/10/16 06:41:42;;;;;;;53.72;31.60;;;;;;;;;;5073126;28;20016;-70
2022/10/16 06:44:14;;;;;;;63.10;34.22;;;;;;;;;;5055754;28;20043;-69
2022/10/16 06:46:40;;;;;;;57.40;33.28;;;;;;;;;;5073474;28;20253;-70
2022/10/16 06:49:05;;;;;;;60.03;33.90;;;;;;;;;;5055353;28;20032;-70
2022/10/16 06:51:31;;;;;;;39.13;24.83;;;;;;;;;;5073484;28;20013;-70
2022/10/16 06:53:57;;;;;;;40.53;25.80;;;;;;;;;;5073127;28;20012;-70
2022/10/16 06:56:23;;;;;;;45.13;28.30;;;;;;;;;;5073238;28;20461;-70
2022/10/16 06:58:49;;;;;;;60.15;34.42;;;;;;;;;;5073449;28;20020;-70
2022/10/16 07:01:15;;;;;;;54.50;31.25;;;;;;;;;;5055337;28;20020;-70
2022/10/16 07:03:42;;;;;;;45.53;26.02;;;;;;;;;;5072417;28;20107;-70
2022/10/16 07:06:08;;;;;;;32.30;20.83;;;;;;;;;;5073040;28;20115;-70
2022/10/16 07:08:38;;;;;;;19.13;13.93;;;;;;;;;;5073365;28;20518;-70
2022/10/16 07:11:05;;;;;;;12.07;9.70;;;;;;;;;;5073466;28;20047;-70
2022/10/16 07:13:32;;;;;;;10.77;8.32;;;;;;;;;;5073084;28;20023;-70
2022/10/16 07:15:58;;;;;;;8.85;7.78;;;;;;;;;;5073009;28;20078;-70
2022/10/16 07:18:26;;;;;;;8.80;7.32;;;;;;;;;;5072991;28;20103;-70
2022/10/16 07:20:52;;;;;;;11.55;8.48;;;;;;;;;;5072494;28;20030;-70
2022/10/16 07:23:17;;;;;;;16.08;13.52;;;;;;;;;;5055056;28;20013;-70
2022/10/16 07:25:43;;;;;;;13.60;12.10;;;;;;;;;;5072946;28;20024;-70
2022/10/16 07:28:08;;;;;;;9.43;7.70;;;;;;;;;;5054877;28;20021;-70
2022/10/16 07:30:35;;;;;;;8.20;7.15;;;;;;;;;;5072697;28;20037;-70
2022/10/16 07:33:00;;;;;;;10.75;9.27;;;;;;;;;;5072323;28;20107;-70
2022/10/16 07:35:33;;;;;;;13.95;10.98;;;;;;;;;;5064295;28;20128;-70
2022/10/16 07:37:58;;;;;;;11.23;9.55;;;;;;;;;;5092914;28;20111;-65
2022/10/16 07:40:26;;;;;;;9.88;8.57;;;;;;;;;;5092956;28;20150;-65
2022/10/16 07:42:52;;;;;;;16.52;9.60;;;;;;;;;;5092240;28;20035;-70
2022/10/16 07:45:17;;;;;;;19.55;13.30;;;;;;;;;;5091999;28;20020;-70
2022/10/16 07:47:43;;;;;;;20.80;12.13;;;;;;;;;;5092647;28;20047;-70
2022/10/16 07:50:08;;;;;;;17.05;9.15;;;;;;;;;;5092789;28;20448;-70
2022/10/16 07:52:34;;;;;;;13.35;8.43;;;;;;;;;;5074502;28;20020;-70
2022/10/16 07:54:59;;;;;;;16.67;9.65;;;;;;;;;;5092477;28;20020;-70
2022/10/16 07:57:25;;;;;;;17.02;10.75;;;;;;;;;;5092603;28;20028;-70
2022/10/16 07:59:51;;;;;;;15.90;9.65;;;;;;;;;;5092297;28;20383;-70
2022/10/16 08:02:16;;;;;;;16.52;10.82;;;;;;;;;;5092305;28;20028;-70
2022/10/16 08:04:42;;;;;;;17.98;8.73;;;;;;;;;;5057627;28;20114;-70
2022/10/16 08:07:08;;;;;;;15.27;8.23;;;;;;;;;;5074329;28;20032;-70
2022/10/16 08:09:34;;;;;;;12.90;6.75;;;;;;;;;;5074336;28;20027;-70
2022/10/16 08:12:00;;;;;;;11.18;7.43;;;;;;;;;;5074173;28;20387;-70
2022/10/16 08:14:25;;;;;;;9.65;7.63;;;;;;;;;;5092282;28;20052;-70
2022/10/16 08:16:50;;;;;;;6.78;5.53;;;;;;;;;;5092544;28;20117;-70
2022/10/16 08:19:16;;;;;;;10.77;7.05;;;;;;;;;;5074140;28;20023;-70
2022/10/16 08:21:41;;;;;;;10.80;7.53;;;;;;;;;;5092541;28;20476;-70
2022/10/16 08:24:06;;;;;;;8.85;7.10;;;;;;;;;;5092138;28;20099;-70
2022/10/16 08:26:32;;;;;;;8.35;6.47;;;;;;;;;;5092056;28;20434;-70
2022/10/16 08:28:57;;;;;;;10.95;7.13;;;;;;;;;;5092169;28;20078;-70
2022/10/16 08:31:23;;;;;;;7.32;6.60;;;;;;;;;;5092431;28;20053;-70
2022/10/16 08:33:49;;;;;;;6.80;6.15;;;;;;;;;;5073876;28;20052;-70
2022/10/16 08:36:15;;;;;;;8.23;5.32;;;;;;;;;;5074056;28;20102;-69
2022/10/16 08:38:41;;;;;;;7.55;6.40;;;;;;;;;;5092325;28;20467;-70
2022/10/16 08:41:09;;;;;;;8.65;6.78;;;;;;;;;;5091961;28;20016;-70
2022/10/16 08:43:50;;;;;;;6.25;4.75;;;;;;;;;;5092109;28;20016;-70
2022/10/16 08:46:24;;;;;;;4.95;4.45;;;;;;;;;;5073937;28;20024;-70
2022/10/16 08:48:51;;;;;;;5.65;5.15;;;;;;;;;;5091657;28;20024;-70
2022/10/16 08:51:25;;;;;;;7.20;5.03;;;;;;;;;;5091916;28;20081;-70
2022/10/16 08:53:55;;;;;;;6.53;5.82;;;;;;;;;;5091833;28;20028;-70
2022/10/16 08:56:21;;;;;;;5.22;4.72;;;;;;;;;;5073777;28;20024;-70
2022/10/16 08:58:47;;;;;;;2.95;2.42;;;;;;;;;;5092055;28;20074;-70
2022/10/16 09:01:16;;;;;;;6.10;4.78;;;;;;;;;;5091740;28;20057;-70
2022/10/16 09:03:49;;;;;;;10.63;6.45;;;;;;;;;;5091784;28;20027;-70
2022/10/16 09:06:26;;;;;;;6.95;4.78;;;;;;;;;;5091835;28;20360;-70
2022/10/16 09:08:55;;;;;;;5.80;5.28;;;;;;;;;;5073921;28;20078;-70
2022/10/16 09:11:26;;;;;;;5.72;4.78;;;;;;;;;;5092470;28;20016;-69
2022/10/16 09:14:07;;;;;;;4.85;4.45;;;;;;;;;;5093168;28;20058;-70
2022/10/16 09:16:35;;;;;;;4.75;4.35;;;;;;;;;;5093811;28;20024;-70
2022/10/16 09:19:08;;;;;;;9.55;5.50;;;;;;;;;;5093303;28;20050;-70
2022/10/16 09:21:44;;;;;;;6.50;4.90;;;;;;;;;;5093111;28;20069;-70
2022/10/16 09:24:18;;;;;;;5.72;4.65;;;;;;;;;;5093444;28;20059;-70
2022/10/16 09:26:45;;;;;;;12.18;7.30;;;;;;;;;;5093724;28;20036;-69
2022/10/16 09:29:14;;;;;;;9.60;5.72;;;;;;;;;;5078362;28;20035;-70
2022/10/16 09:31:41;;;;;;;9.18;5.15;;;;;;;;;;5096998;28;20024;-70
2022/10/16 09:34:06;;;;;;;4.63;4.25;;;;;;;;;;5061014;28;20023;-70
2022/10/16 09:36:36;;;;;;;5.47;4.63;;;;;;;;;;5075597;28;20488;-69
2022/10/16 09:39:05;;;;;;;5.75;4.63;;;;;;;;;;5074458;28;20047;-70
2022/10/16 09:41:34;;;;;;;5.50;5.00;;;;;;;;;;5074179;28;20033;-69
2022/10/16 09:44:00;;;;;;;6.93;4.57;;;;;;;;;;5074111;28;20471;-69
2022/10/16 09:46:28;;;;;;;5.72;4.90;;;;;;;;;;5056177;28;20541;-70
2022/10/16 09:49:00;;;;;;;7.55;4.60;;;;;;;;;;5074078;28;20428;-69
2022/10/16 09:51:30;;;;;;;5.05;4.30;;;;;;;;;;5073981;28;20480;-69
2022/10/16 09:53:57;;;;;;;6.73;3.93;;;;;;;;;;5056155;28;20024;-69
2022/10/16 09:56:32;;;;;;;5.15;4.55;;;;;;;;;;5074367;28;20096;-68
2022/10/16 09:58:59;;;;;;;6.22;4.85;;;;;;;;;;5109840;22;20039;-69
2022/10/16 10:01:38;;;;;;;7.18;5.20;;;;;;;;;;5096413;28;20490;-70
2022/10/16 10:04:04;;;;;;;5.13;4.03;;;;;;;;;;5096653;28;20034;-70
2022/10/16 10:06:40;;;;;;;5.38;4.72;;;;;;;;;;5096072;28;20099;-70
2022/10/16 10:09:05;;;;;;;5.28;4.78;;;;;;;;;;5096525;28;20055;-70
2022/10/16 10:11:41;;;;;;;5.18;4.75;;;;;;;;;;5096213;28;20051;-70
2022/10/16 10:14:27;;;;;;;5.07;4.60;;;;;;;;;;5095906;28;20429;-70
2022/10/16 10:17:02;;;;;;;6.07;4.95;;;;;;;;;;5093870;28;20449;-70
2022/10/16 10:19:27;;;;;;;5.90;4.82;;;;;;;;;;5095778;28;20031;-70
2022/10/16 10:21:52;;;;;;;5.65;5.10;;;;;;;;;;5094849;28;20087;-70
2022/10/16 10:24:18;;;;;;;6.20;5.22;;;;;;;;;;5095699;28;20056;-70
2022/10/16 10:27:10;;;;;;;6.32;4.93;;;;;;;;;;5095933;28;20019;-70
2022/10/16 10:29:41;;;;;;;6.60;4.70;;;;;;;;;;5092475;28;20109;-70
2022/10/16 10:32:25;;;;;;;4.93;4.35;;;;;;;;;;5095857;28;20032;-70
2022/10/16 10:35:14;;;;;;;5.25;4.75;;;;;;;;;;5077494;28;20020;-70
2022/10/16 10:37:52;;;;;;;5.75;4.50;;;;;;;;;;5066597;28;20098;-70
2022/10/16 10:40:36;;;;;;;5.70;5.20;;;;;;;;;;5095083;28;20506;-70
2022/10/16 10:43:09;;;;;;;6.07;4.88;;;;;;;;;;5095611;28;20082;-70
2022/10/16 10:45:49;;;;;;;6.38;5.20;;;;;;;;;;5094104;28;20047;-70
2022/10/16 10:48:20;;;;;;;8.77;5.25;;;;;;;;;;5095475;28;20035;-70
2022/10/16 10:50:49;;;;;;;5.40;4.88;;;;;;;;;;5095623;28;20050;-70
2022/10/16 10:53:29;;;;;;;5.50;4.93;;;;;;;;;;5095098;28;20451;-70
2022/10/16 10:56:18;;;;;;;7.50;5.65;;;;;;;;;;5095610;28;20024;-70
2022/10/16 10:58:52;;;;;;;6.35;5.05;;;;;;;;;;5082830;28;20047;-70
2022/10/16 11:01:24;;;;;;;7.00;5.40;;;;;;;;;;5095007;28;20024;-70
2022/10/16 11:04:09;;;;;;;6.60;5.85;;;;;;;;;;5076552;28;20119;-70
2022/10/16 11:07:00;;;;;;;6.85;5.25;;;;;;;;;;5095125;28;20028;-70
2022/10/16 11:09:41;;;;;;;6.47;5.45;;;;;;;;;;5091701;28;20040;-70
2022/10/16 11:12:16;;;;;;;8.55;5.95;;;;;;;;;;5094287;28;20028;-70
2022/10/16 11:14:45;;;;;;;6.97;5.53;;;;;;;;;;5095019;28;20070;-70
2022/10/16 11:17:18;;;;;;;5.90;4.72;;;;;;;;;;5094692;28;20023;-70
2022/10/16 11:19:43;;;;;;;5.63;5.03;;;;;;;;;;5094646;28;20055;-70
2022/10/16 11:22:27;;;;;;;7.25;5.40;;;;;;;;;;5095298;28;20024;-70
2022/10/16 11:24:58;;;;;;;6.15;4.55;;;;;;;;;;5093380;28;20032;-71
2022/10/16 11:27:33;;;;;;;5.07;4.38;;;;;;;;;;5093756;28;20038;-70
2022/10/16 11:30:01;;;;;;;7.65;4.72;;;;;;;;;;5094163;28;20121;-71
2022/10/16 11:32:44;;;;;;;5.85;3.97;;;;;;;;;;5093842;28;20471;-70
2022/10/16 11:35:21;;;;;;;5.50;5.00;;;;;;;;;;5092354;28;20108;-70
2022/10/16 11:37:48;;;;;;;5.22;3.97;;;;;;;;;;5092415;28;20031;-70
2022/10/16 11:40:21;;;;;;;5.10;4.70;;;;;;;;;;5091131;28;20051;-71
2022/10/16 11:42:50;;;;;;;5.00;4.57;;;;;;;;;;5092131;28;20058;-70
2022/10/16 11:45:25;;;;;;;6.55;5.00;;;;;;;;;;5092095;28;20470;-70
2022/10/16 11:48:07;;;;;;;6.15;4.47;;;;;;;;;;5090887;28;20081;-71
2022/10/16 11:50:42;;;;;;;4.63;4.07;;;;;;;;;;5091996;28;20066;-71
2022/10/16 11:53:13;;;;;;;4.05;3.70;;;;;;;;;;5093279;28;20032;-70
2022/10/16 11:55:40;;;;;;;7.20;4.07;;;;;;;;;;5093477;28;20020;-70
2022/10/16 11:58:09;;;;;;;6.70;3.67;;;;;;;;;;5093700;28;20020;-70
2022/10/16 12:00:53;;;;;;;3.90;3.58;;;;;;;;;;5094583;28;20048;-70
2022/10/16 12:03:24;;;;;;;4.35;3.78;;;;;;;;;;5094202;28;20063;-70
2022/10/16 12:05:58;;;;;;;10.48;7.05;;;;;;;;;;5094192;28;20056;-70
2022/10/16 12:08:24;;;;;;;8.30;5.20;;;;;;;;;;5093840;28;20103;-70
2022/10/16 12:10:49;;;;;;;4.88;4.40;;;;;;;;;;5094054;28;20442;-70
2022/10/16 12:13:31;;;;;;;5.78;4.78;;;;;;;;;;5094063;28;20028;-70
2022/10/16 12:16:06;;;;;;;6.65;5.25;;;;;;;;;;5093733;28;20024;-70
2022/10/16 12:18:32;;;;;;;4.38;4.03;;;;;;;;;;5093966;28;20040;-70
2022/10/16 12:21:16;;;;;;;4.15;3.75;;;;;;;;;;5093679;28;20123;-70
2022/10/16 12:23:48;;;;;;;4.97;4.45;;;;;;;;;;5093936;28;20028;-70
2022/10/16 12:26:23;;;;;;;4.78;4.40;;;;;;;;;;5093916;28;20032;-70
2022/10/16 12:28:51;;;;;;;4.65;3.97;;;;;;;;;;5093897;28;20028;-70
2022/10/16 12:31:16;;;;;;;4.63;3.50;;;;;;;;;;5092432;28;20024;-70
2022/10/16 12:33:54;;;;;;;4.13;3.78;;;;;;;;;;5093853;28;20058;-70
2022/10/16 12:36:31;;;;;;;4.55;3.97;;;;;;;;;;5094121;28;20050;-70
2022/10/16 12:38:56;;;;;;;5.63;4.32;;;;;;;;;;5093808;28;20024;-70
2022/10/16 12:41:29;;;;;;;4.35;3.75;;;;;;;;;;5093549;28;20540;-70
2022/10/16 12:43:54;;;;;;;4.80;4.05;;;;;;;;;;5093750;28;20036;-70
2022/10/16 12:46:24;;;;;;;4.55;3.75;;;;;;;;;;5093763;28;20028;-70
2022/10/16 12:48:50;;;;;;;7.40;4.22;;;;;;;;;;5093460;28;20028;-70
2022/10/16 12:51:33;;;;;;;4.03;3.72;;;;;;;;;;5093681;28;20019;-70
2022/10/16 12:54:13;;;;;;;4.97;4.47;;;;;;;;;;5093706;28;20028;-70
2022/10/16 12:56:39;;;;;;;4.57;4.18;;;;;;;;;;5093668;28;20051;-71
2022/10/16 12:59:12;;;;;;;4.78;3.92;;;;;;;;;;5091899;28;20487;-70
2022/10/16 13:01:51;;;;;;;4.70;3.63;;;;;;;;;;5092928;28;20035;-70
2022/10/16 13:04:21;;;;;;;4.75;3.90;;;;;;;;;;5095957;28;20031;-70
2022/10/16 13:06:50;;;;;;;4.63;4.22;;;;;;;;;;5096366;28;20043;-70
2022/10/16 13:09:27;;;;;;;4.75;4.35;;;;;;;;;;5097008;28;20036;-70
2022/10/16 13:11:53;;;;;;;4.95;4.55;;;;;;;;;;5097379;28;20095;-70
2022/10/16 13:14:35;;;;;;;4.35;3.95;;;;;;;;;;5097061;28;20048;-70
2022/10/16 13:17:07;;;;;;;5.35;4.70;;;;;;;;;;5097019;28;20036;-70
2022/10/16 13:19:45;;;;;;;4.70;4.13;;;;;;;;;;5097226;28;20127;-70
2022/10/16 13:22:10;;;;;;;4.70;4.30;;;;;;;;;;5095628;28;20028;-70
2022/10/16 13:24:41;;;;;;;4.85;4.22;;;;;;;;;;5095591;28;20031;-70
2022/10/16 13:27:12;;;;;;;4.60;4.07;;;;;;;;;;5097098;28;20050;-70
2022/10/16 13:29:37;;;;;;;5.07;4.07;;;;;;;;;;5096697;28;20397;-70
2022/10/16 13:32:07;;;;;;;5.05;4.53;;;;;;;;;;5078600;28;20042;-70
2022/10/16 13:34:42;;;;;;;5.30;4.38;;;;;;;;;;5096673;28;20032;-70
2022/10/16 13:37:16;;;;;;;4.15;3.80;;;;;;;;;;5095358;28;20017;-70
2022/10/16 13:39:41;;;;;;;4.00;3.60;;;;;;;;;;5096884;28;20047;-70
2022/10/16 13:42:12;;;;;;;4.97;4.28;;;;;;;;;;5096532;28;20027;-71
2022/10/16 13:44:43;;;;;;;5.15;4.63;;;;;;;;;;5096775;28;20035;-70
2022/10/16 13:47:41;;;;;;;5.00;4.57;;;;;;;;;;5095209;28;20073;-70
2022/10/16 13:50:11;;;;;;;5.97;4.32;;;;;;;;;;5062818;28;20044;-70
2022/10/16 13:52:37;;;;;;;;;;;;;;;;;;5097377;28;20119;-70
2022/10/16 13:55:04;;;;;;;5.18;4.00;;;;;;;;;;5096570;28;19963;-70
2022/10/16 13:57:29;;;;;;;4.60;4.20;;;;;;;;;;5095347;28;20027;-70
2022/10/16 13:59:55;;;;;;;5.18;4.53;;;;;;;;;;5094927;28;20040;-70
2022/10/16 14:02:28;;;;;;;6.03;4.75;;;;;;;;;;5095212;28;20043;-70
2022/10/16 14:04:54;;;;;;;5.63;4.60;;;;;;;;;;5096384;28;20028;-70
2022/10/16 14:07:27;;;;;;;6.30;4.80;;;;;;;;;;5096056;28;20104;-70
2022/10/16 14:09:53;;;;;;;6.57;5.35;;;;;;;;;;5094676;28;20114;-70
2022/10/16 14:12:19;;;;;;;6.50;5.85;;;;;;;;;;5095855;28;20105;-70
2022/10/16 14:14:50;;;;;;;5.35;4.85;;;;;;;;;;5095876;28;20026;-70
2022/10/16 14:17:19;;;;;;;10.00;7.15;;;;;;;;;;5096423;28;20345;-70
2022/10/16 14:19:49;;;;;;;9.32;6.07;;;;;;;;;;5095971;28;20023;-70
2022/10/16 14:22:22;;;;;;;10.15;5.93;;;;;;;;;;5094519;28;20024;-68
2022/10/16 14:24:47;;;;;;;7.28;5.47;;;;;;;;;;5094863;28;20476;-68
2022/10/16 14:27:27;;;;;;;8.40;5.32;;;;;;;;;;5095926;28;20012;-68
2022/10/16 14:29:53;;;;;;;;;;;;;;;;;;5095983;28;20449;-68
2022/10/16 14:32:22;;;;;;;5.80;4.03;;;;;;;;;;5096116;28;19947;-68
2022/10/16 14:34:53;;;;;;;5.30;4.75;;;;;;;;;;5095834;28;20035;-68
2022/10/16 14:37:18;;;;;;;;;;;;;;;;;;5096229;28;20028;-68
2022/10/16 14:39:48;;;;;;;6.80;5.35;;;;;;;;;;5094159;28;20412;-68
2022/10/16 14:42:17;;;;;;;6.20;5.32;;;;;;;;;;5095233;28;20024;-68
2022/10/16 14:44:43;;;;;;;6.03;5.43;;;;;;;;;;5095585;28;20020;-68